Terminal Aerodrome Forecast
Issued by NWS

Home | Current Version | Previous Version | Text Only | Print | Product List | Glossary On
Versions: 1 2 3 4 5 6 7 8 9 10 11 12 13
000
FTUS45 KRIW 221724
TAFWRL
TAF
KWRL 221724Z 2218/2318 VRB04KT P6SM SCT120
     FM222200 01006KT P6SM FEW120
     FM230300 VRB04KT P6SM FEW120=

USA.gov is the U.S. government's official web portal to all federal, state and local government web resources and services.